Time;durP1;ratioP1;P1;durP2;ratioP2;P2;SDS_P1;SDS_P2;PMS_P1;PMS_P2;Temp;Humidity;BMP_temperature;BMP_pressure;BME280_temperature;BME280_humidity;BME280_pressure;Samples;Min_cycle;Max_cycle;Signal;HPM_P1;HPM_P2
2021/06/22 00:00:33;;;;;;;;;;;28.50;91.40;;;;;;5107843;28;20112;-56
2021/06/22 00:03:00;;;;;;;;;;;28.40;91.60;;;;;;5107948;28;20247;-48
2021/06/22 00:05:26;;;;;;;;;;;28.40;91.60;;;;;;5108561;28;20188;-52
2021/06/22 00:07:54;;;;;;;;;;;28.40;91.60;;;;;;5106558;28;20233;-52
2021/06/22 00:10:21;;;;;;;;;;;28.40;91.50;;;;;;5108263;28;19913;-53
2021/06/22 00:12:48;;;;;;;;;;;28.30;91.60;;;;;;5107559;28;19904;-58
2021/06/22 00:15:15;;;;;;;;;;;28.30;91.70;;;;;;5108074;28;19920;-53
2021/06/22 00:17:42;;;;;;;;;;;28.30;91.70;;;;;;5107753;28;19904;-57
2021/06/22 00:20:09;;;;;;;;;;;28.30;91.70;;;;;;5107809;28;20135;-55
2021/06/22 00:22:35;;;;;;;;;;;28.20;91.80;;;;;;5107326;28;20158;-55
2021/06/22 00:25:02;;;;;;;;;;;28.20;91.90;;;;;;5107750;28;19919;-54
2021/06/22 00:27:28;;;;;;;;;;;28.10;92.10;;;;;;5106870;28;19922;-54
2021/06/22 00:29:55;;;;;;;;;;;28.10;92.10;;;;;;5105834;28;19916;-56
2021/06/22 00:32:21;;;;;;;;;;;28.10;92.20;;;;;;5103288;28;19904;-55
2021/06/22 00:34:47;;;;;;;;;;;28.20;92.30;;;;;;5106265;28;19919;-53
2021/06/22 00:37:17;;;;;;;;;;;28.10;92.40;;;;;;5107000;28;19904;-56
2021/06/22 00:39:44;;;;;;;;;;;28.10;92.50;;;;;;5107342;28;19920;-55
2021/06/22 00:42:11;;;;;;;;;;;28.10;92.50;;;;;;5106953;28;19919;-55
2021/06/22 00:44:56;;;;;;;;;;;28.00;92.40;;;;;;5107171;28;19965;-55
2021/06/22 00:47:22;;;;;;;;;;;28.00;92.50;;;;;;5106841;28;19908;-55
2021/06/22 00:49:49;;;;;;;;;;;28.00;92.50;;;;;;5106873;28;19912;-54
2021/06/22 00:52:16;;;;;;;;;;;28.00;92.50;;;;;;5105619;28;19978;-55
2021/06/22 00:54:42;;;;;;;;;;;28.00;92.40;;;;;;5107106;28;20035;-56
2021/06/22 00:57:09;;;;;;;;;;;27.90;92.60;;;;;;5105366;28;19911;-56
2021/06/22 00:59:35;;;;;;;;;;;27.90;92.70;;;;;;5106594;28;19927;-56
2021/06/22 01:02:02;;;;;;;;;;;27.90;92.70;;;;;;5105708;28;19943;-53
2021/06/22 01:04:29;;;;;;;;;;;27.80;92.70;;;;;;5105896;28;19912;-57
2021/06/22 01:06:58;;;;;;;;;;;27.80;92.70;;;;;;5106369;28;19915;-57
2021/06/22 01:09:24;;;;;;;;;;;27.80;92.70;;;;;;5106706;28;19912;-55
2021/06/22 01:11:51;;;;;;;;;;;27.80;92.70;;;;;;5105130;28;19971;-58
2021/06/22 01:14:18;;;;;;;;;;;27.80;92.70;;;;;;5105970;28;19935;-55
2021/06/22 01:16:44;;;;;;;;;;;27.80;92.60;;;;;;5106170;28;19911;-56
2021/06/22 01:19:11;;;;;;;;;;;27.70;92.70;;;;;;5104210;28;19913;-55
2021/06/22 01:21:38;;;;;;;;;;;27.70;92.60;;;;;;5105090;28;19908;-58
2021/06/22 01:24:05;;;;;;;;;;;27.80;92.60;;;;;;5103885;28;19940;-56
2021/06/22 01:26:32;;;;;;;;;;;27.80;92.60;;;;;;5104718;28;19924;-58
2021/06/22 01:28:58;;;;;;;;;;;27.70;92.60;;;;;;5105073;28;19950;-55
2021/06/22 01:31:24;;;;;;;;;;;27.80;92.80;;;;;;5093908;28;20168;-57
2021/06/22 01:33:50;;;;;;;;;;;27.80;92.80;;;;;;5093470;28;19913;-60
2021/06/22 01:36:20;;;;;;;;;;;27.70;92.70;;;;;;5095416;28;19915;-56
2021/06/22 01:38:47;;;;;;;;;;;27.70;92.60;;;;;;5095331;28;19912;-56
2021/06/22 01:41:13;;;;;;;;;;;27.70;92.60;;;;;;5093728;28;19976;-53
2021/06/22 01:43:39;;;;;;;;;;;27.60;92.70;;;;;;5098189;28;20095;-54
2021/06/22 01:46:06;;;;;;;;;;;27.70;92.90;;;;;;5103802;28;19922;-57
2021/06/22 01:48:32;;;;;;;;;;;27.70;92.90;;;;;;5104306;28;19916;-56
2021/06/22 01:50:58;;;;;;;;;;;27.60;93.00;;;;;;5098075;28;20188;-56
2021/06/22 01:53:25;;;;;;;;;;;27.50;93.10;;;;;;5095171;28;19904;-54
2021/06/22 01:55:52;;;;;;;;;;;27.50;93.10;;;;;;5099796;28;20100;-58
2021/06/22 01:58:19;;;;;;;;;;;27.50;92.90;;;;;;5104182;28;19911;-60
2021/06/22 02:00:47;;;;;;;;;;;27.50;92.90;;;;;;5104416;28;19911;-63
2021/06/22 02:03:15;;;;;;;;;;;27.60;93.10;;;;;;5098970;28;20189;-59
2021/06/22 02:05:41;;;;;;;;;;;27.60;93.10;;;;;;5094998;28;19923;-55
2021/06/22 02:08:08;;;;;;;;;;;27.60;92.80;;;;;;5093275;28;20101;-58
2021/06/22 02:10:34;;;;;;;;;;;27.60;92.70;;;;;;5104007;28;19912;-57
2021/06/22 02:13:01;;;;;;;;;;;27.60;92.70;;;;;;5104227;28;20161;-60
2021/06/22 02:15:27;;;;;;;;;;;27.60;92.70;;;;;;5104578;28;19912;-61
2021/06/22 02:17:53;;;;;;;;;;;27.60;92.90;;;;;;5101011;28;19988;-56
2021/06/22 02:20:19;;;;;;;;;;;27.60;92.70;;;;;;5103773;28;20115;-59
2021/06/22 02:22:46;;;;;;;;;;;27.60;92.40;;;;;;5104039;28;19908;-56
2021/06/22 02:25:12;;;;;;;;;;;27.60;92.40;;;;;;5104676;28;19919;-56
2021/06/22 02:27:39;;;;;;;;;;;27.60;92.40;;;;;;5104189;28;19916;-57
2021/06/22 02:30:11;;;;;;;;;;;27.50;92.80;;;;;;5102110;28;19920;-56
2021/06/22 02:32:39;;;;;;;;;;;27.60;93.00;;;;;;5101738;28;19916;-57
2021/06/22 02:35:09;;;;;;;;;;;27.50;92.90;;;;;;5104005;28;19919;-58
2021/06/22 02:37:38;;;;;;;;;;;27.60;93.00;;;;;;5101197;28;19904;-55
2021/06/22 02:40:05;;;;;;;;;;;27.50;92.90;;;;;;5104912;28;19958;-56
2021/06/22 02:42:32;;;;;;;;;;;27.50;92.90;;;;;;5102335;28;20185;-58
2021/06/22 02:44:58;;;;;;;;;;;27.50;92.90;;;;;;5103093;28;19912;-58
2021/06/22 02:47:24;;;;;;;;;;;27.50;93.00;;;;;;5103860;28;19919;-57
2021/06/22 02:49:51;;;;;;;;;;;27.50;93.10;;;;;;5104714;28;19970;-56
2021/06/22 02:52:18;;;;;;;;;;;27.50;93.10;;;;;;5104355;28;19979;-52
2021/06/22 02:54:44;;;;;;;;;;;27.50;93.10;;;;;;5104305;28;19913;-56
2021/06/22 02:57:11;;;;;;;;;;;27.50;93.10;;;;;;5103555;28;20212;-56
2021/06/22 02:59:38;;;;;;;;;;;27.40;93.10;;;;;;5104973;28;19961;-58
2021/06/22 03:02:05;;;;;;;;;;;27.40;93.00;;;;;;5104597;28;19915;-56
2021/06/22 03:04:32;;;;;;;;;;;27.40;93.10;;;;;;5104125;28;20093;-55
2021/06/22 03:07:01;;;;;;;;;;;27.40;93.00;;;;;;5104113;28;19915;-57
2021/06/22 03:09:27;;;;;;;;;;;27.40;92.90;;;;;;5104534;28;19954;-62
2021/06/22 03:11:54;;;;;;;;;;;27.40;92.90;;;;;;5104224;28;19915;-56
2021/06/22 03:14:21;;;;;;;;;;;27.40;93.00;;;;;;5104373;28;20110;-60
2021/06/22 03:16:48;;;;;;;;;;;27.40;93.10;;;;;;5101532;28;20250;-58
2021/06/22 03:19:14;;;;;;;;;;;27.40;93.20;;;;;;5103416;28;19912;-55
2021/06/22 03:21:43;;;;;;;;;;;27.30;93.10;;;;;;5103320;28;19915;-57
2021/06/22 03:24:13;;;;;;;;;;;27.30;93.00;;;;;;5103547;28;19920;-56
2021/06/22 03:26:39;;;;;;;;;;;27.30;93.20;;;;;;5103185;28;20068;-57
2021/06/22 03:29:05;;;;;;;;;;;27.30;93.20;;;;;;5103396;28;19920;-57
2021/06/22 03:31:32;;;;;;;;;;;27.40;93.20;;;;;;5101050;28;20062;-52
2021/06/22 03:33:58;;;;;;;;;;;27.40;93.20;;;;;;5103965;28;19933;-48
2021/06/22 03:36:24;;;;;;;;;;;27.40;93.20;;;;;;5103908;28;19908;-56
2021/06/22 03:38:50;;;;;;;;;;;27.40;93.20;;;;;;5103644;28;19935;-52
2021/06/22 03:41:17;;;;;;;;;;;27.40;93.30;;;;;;5103184;28;19916;-55
2021/06/22 03:43:43;;;;;;;;;;;27.40;93.30;;;;;;5104277;28;19912;-59
2021/06/22 03:46:10;;;;;;;;;;;27.40;93.30;;;;;;5103708;28;19967;-61
2021/06/22 03:48:36;;;;;;;;;;;27.40;93.40;;;;;;5101810;28;20112;-54
2021/06/22 03:51:03;;;;;;;;;;;27.40;93.40;;;;;;5103502;28;19922;-52
2021/06/22 03:53:29;;;;;;;;;;;27.40;93.30;;;;;;5104135;28;19904;-52
2021/06/22 03:55:56;;;;;;;;;;;27.40;93.30;;;;;;5103781;28;19936;-49
2021/06/22 03:58:23;;;;;;;;;;;27.40;93.40;;;;;;5103679;28;19946;-54
2021/06/22 04:00:49;;;;;;;;;;;27.40;93.30;;;;;;5104008;28;19957;-51
2021/06/22 04:03:16;;;;;;;;;;;27.40;93.30;;;;;;5103453;28;20109;-54
2021/06/22 04:05:42;;;;;;;;;;;27.40;93.40;;;;;;5102804;28;20107;-56
2021/06/22 04:08:08;;;;;;;;;;;27.40;93.40;;;;;;5107538;28;20254;-54
2021/06/22 04:10:35;;;;;;;;;;;27.40;93.40;;;;;;5107984;28;19979;-55
2021/06/22 04:13:01;;;;;;;;;;;27.40;93.50;;;;;;5107355;28;19908;-52
2021/06/22 04:15:27;;;;;;;;;;;27.40;93.50;;;;;;5108199;28;19969;-55
2021/06/22 04:18:03;;;;;;;;;;;27.40;93.70;;;;;;5106849;28;19904;-57
2021/06/22 04:20:30;;;;;;;;;;;27.40;93.80;;;;;;5107422;28;19990;-51
2021/06/22 04:22:56;;;;;;;;;;;27.40;93.80;;;;;;5107650;28;19904;-55
2021/06/22 04:25:22;;;;;;;;;;;27.40;93.80;;;;;;5107934;28;19987;-53
2021/06/22 04:27:48;;;;;;;;;;;27.40;93.80;;;;;;5107093;28;19952;-53
2021/06/22 04:30:15;;;;;;;;;;;27.40;93.80;;;;;;5107851;28;20249;-52
2021/06/22 04:32:41;;;;;;;;;;;27.40;93.90;;;;;;5107336;28;19967;-54
2021/06/22 04:35:08;;;;;;;;;;;27.40;93.80;;;;;;5107292;28;19958;-53
2021/06/22 04:37:34;;;;;;;;;;;27.30;93.90;;;;;;5107519;28;19912;-53
2021/06/22 04:40:00;;;;;;;;;;;27.30;93.90;;;;;;5107640;28;19949;-53
2021/06/22 04:42:26;;;;;;;;;;;27.30;93.90;;;;;;5106985;28;19905;-56
2021/06/22 04:44:53;;;;;;;;;;;27.30;93.90;;;;;;5107408;28;19919;-53
2021/06/22 04:47:19;;;;;;;;;;;27.30;93.90;;;;;;5107078;28;20105;-57
2021/06/22 04:49:46;;;;;;;;;;;27.30;93.90;;;;;;5107044;28;19912;-52
2021/06/22 04:52:12;;;;;;;;;;;27.30;94.00;;;;;;5107138;28;19911;-53
2021/06/22 04:54:39;;;;;;;;;;;27.30;94.00;;;;;;5107460;28;19919;-52
2021/06/22 04:57:06;;;;;;;;;;;27.30;94.00;;;;;;5106791;28;19971;-55
2021/06/22 04:59:33;;;;;;;;;;;27.20;94.00;;;;;;5106880;28;19976;-55
2021/06/22 05:01:59;;;;;;;;;;;27.20;94.00;;;;;;5106875;28;19926;-53
2021/06/22 05:04:26;;;;;;;;;;;27.30;94.10;;;;;;5106557;28;19912;-55
2021/06/22 05:06:52;;;;;;;;;;;27.30;94.00;;;;;;5106522;28;19904;-54
2021/06/22 05:09:18;;;;;;;;;;;27.20;94.00;;;;;;5106602;28;19919;-51
2021/06/22 05:11:44;;;;;;;;;;;27.30;93.90;;;;;;5106494;28;19904;-51
2021/06/22 05:14:10;;;;;;;;;;;27.20;94.10;;;;;;5106653;28;19912;-50
2021/06/22 05:16:37;;;;;;;;;;;27.20;94.40;;;;;;5105876;28;19904;-48
2021/06/22 05:19:03;;;;;;;;;;;27.20;94.40;;;;;;5104217;28;20093;-52
2021/06/22 05:21:29;;;;;;;;;;;27.20;94.50;;;;;;5105007;28;19910;-51
2021/06/22 05:23:55;;;;;;;;;;;27.20;94.60;;;;;;5105849;28;19983;-53
2021/06/22 05:26:22;;;;;;;;;;;27.20;94.60;;;;;;5106094;28;19912;-52
2021/06/22 05:28:49;;;;;;;;;;;27.20;94.20;;;;;;5105626;28;19927;-56
2021/06/22 05:31:16;;;;;;;;;;;27.10;94.10;;;;;;5106115;28;19912;-55
2021/06/22 05:33:42;;;;;;;;;;;27.10;94.00;;;;;;5106248;28;19912;-51
2021/06/22 05:36:08;;;;;;;;;;;27.10;93.90;;;;;;5105998;28;19904;-53
2021/06/22 05:38:35;;;;;;;;;;;27.10;93.90;;;;;;5106023;28;20094;-56
2021/06/22 05:41:01;;;;;;;;;;;27.10;93.70;;;;;;5106007;28;19904;-53
2021/06/22 05:43:27;;;;;;;;;;;27.00;93.50;;;;;;5105630;28;20204;-53
2021/06/22 05:45:53;;;;;;;;;;;27.00;93.40;;;;;;5105807;28;19911;-57
2021/06/22 05:48:19;;;;;;;;;;;27.00;93.20;;;;;;5105700;28;19912;-52
2021/06/22 05:50:46;;;;;;;;;;;26.90;93.00;;;;;;5105767;28;19904;-53
2021/06/22 05:53:12;;;;;;;;;;;26.90;92.90;;;;;;5105685;28;19904;-52
2021/06/22 05:55:38;;;;;;;;;;;26.90;92.70;;;;;;5105816;28;20222;-52
2021/06/22 05:58:04;;;;;;;;;;;26.90;92.60;;;;;;5105577;28;19911;-54
2021/06/22 06:00:32;;;;;;;;;;;26.80;92.60;;;;;;5106126;28;19958;-52
2021/06/22 06:02:58;;;;;;;;;;;26.80;92.70;;;;;;5105641;28;19904;-52
2021/06/22 06:05:25;;;;;;;;;;;26.80;92.90;;;;;;5105982;28;19912;-52
2021/06/22 06:07:52;;;;;;;;;;;26.80;93.00;;;;;;5105507;28;20097;-51
2021/06/22 06:10:19;;;;;;;;;;;26.70;93.00;;;;;;5105989;28;19943;-52
2021/06/22 06:12:46;;;;;;;;;;;26.70;93.10;;;;;;5105473;28;19931;-55
2021/06/22 06:15:13;;;;;;;;;;;26.70;93.10;;;;;;5104143;28;19912;-52
2021/06/22 06:17:39;;;;;;;;;;;26.70;93.20;;;;;;5105180;28;19904;-51
2021/06/22 06:20:07;;;;;;;;;;;26.60;93.10;;;;;;5105789;28;19939;-53
2021/06/22 06:22:33;;;;;;;;;;;26.70;93.10;;;;;;5105108;28;19979;-52
2021/06/22 06:25:02;;;;;;;;;;;26.70;93.10;;;;;;5105474;28;19912;-54
2021/06/22 06:27:44;;;;;;;;;;;26.70;93.30;;;;;;5104995;28;19923;-51
2021/06/22 06:30:13;;;;;;;;;;;26.70;93.40;;;;;;5104676;28;19912;-53
2021/06/22 06:32:40;;;;;;;;;;;26.70;93.30;;;;;;5105149;28;19904;-52
2021/06/22 06:35:06;;;;;;;;;;;26.70;93.40;;;;;;5105330;28;19934;-54
2021/06/22 06:37:32;;;;;;;;;;;26.70;93.50;;;;;;5105315;28;19904;-59
2021/06/22 06:39:59;;;;;;;;;;;26.60;93.60;;;;;;5105393;28;19912;-58
2021/06/22 06:42:25;;;;;;;;;;;26.60;93.60;;;;;;5104728;28;19975;-54
2021/06/22 06:44:51;;;;;;;;;;;26.60;93.70;;;;;;5105334;28;20152;-54
2021/06/22 06:47:18;;;;;;;;;;;26.60;93.80;;;;;;5103651;28;19908;-54
2021/06/22 06:49:44;;;;;;;;;;;26.60;93.90;;;;;;5104989;28;20086;-55
2021/06/22 06:52:10;;;;;;;;;;;26.60;93.80;;;;;;5104744;28;19946;-52
2021/06/22 06:54:36;;;;;;;;;;;26.60;93.90;;;;;;5105106;28;19947;-53
2021/06/22 06:57:03;;;;;;;;;;;26.60;94.00;;;;;;5104537;28;19911;-54
2021/06/22 06:59:29;;;;;;;;;;;26.60;94.00;;;;;;5104986;28;19919;-57
2021/06/22 07:01:55;;;;;;;;;;;26.60;94.10;;;;;;5104724;28;19904;-54
2021/06/22 07:04:22;;;;;;;;;;;26.60;94.20;;;;;;5104689;28;19912;-57
2021/06/22 07:06:48;;;;;;;;;;;26.60;94.20;;;;;;5104742;28;19965;-53
2021/06/22 07:09:14;;;;;;;;;;;26.60;94.40;;;;;;5104738;28;20216;-57
2021/06/22 07:11:41;;;;;;;;;;;26.60;94.50;;;;;;5104502;28;19905;-56
2021/06/22 07:14:07;;;;;;;;;;;26.60;94.40;;;;;;5104781;28;19916;-54
2021/06/22 07:16:34;;;;;;;;;;;26.60;94.40;;;;;;5104662;28;19904;-53
2021/06/22 07:19:02;;;;;;;;;;;26.60;94.50;;;;;;5103272;28;20135;-53
2021/06/22 07:21:29;;;;;;;;;;;26.60;94.40;;;;;;5104364;28;19904;-55
2021/06/22 07:23:55;;;;;;;;;;;26.60;94.50;;;;;;5104582;28;19912;-58
2021/06/22 07:26:21;;;;;;;;;;;26.60;94.50;;;;;;5104249;28;19971;-56
2021/06/22 07:28:47;;;;;;;;;;;26.60;94.60;;;;;;5104297;28;19926;-54
2021/06/22 07:31:13;;;;;;;;;;;26.60;94.60;;;;;;5104462;28;19939;-56
2021/06/22 07:33:40;;;;;;;;;;;26.60;94.70;;;;;;5104505;28;20205;-53
2021/06/22 07:36:07;;;;;;;;;;;26.60;94.60;;;;;;5104192;28;19975;-52
2021/06/22 07:38:33;;;;;;;;;;;26.50;94.70;;;;;;5104484;28;20173;-54
2021/06/22 07:40:59;;;;;;;;;;;26.60;94.60;;;;;;5105754;28;19908;-56
2021/06/22 07:43:26;;;;;;;;;;;26.60;94.60;;;;;;5108196;28;19911;-52
2021/06/22 07:45:52;;;;;;;;;;;26.60;94.60;;;;;;5108426;28;19904;-55
2021/06/22 07:48:18;;;;;;;;;;;26.60;94.70;;;;;;5108197;28;20054;-54
2021/06/22 07:50:44;;;;;;;;;;;26.60;94.80;;;;;;5108024;28;19904;-52
2021/06/22 07:53:11;;;;;;;;;;;26.50;94.80;;;;;;5108127;28;20103;-56
2021/06/22 07:55:37;;;;;;;;;;;26.50;94.80;;;;;;5108209;28;20242;-54
2021/06/22 07:58:03;;;;;;;;;;;26.50;94.80;;;;;;5107892;28;20181;-55
2021/06/22 08:00:43;;;;;;;;;;;26.50;94.70;;;;;;5108539;28;19958;-55
2021/06/22 08:03:10;;;;;;;;;;;26.50;94.80;;;;;;5107889;28;20002;-56
2021/06/22 08:05:37;;;;;;;;;;;26.50;94.80;;;;;;5107816;28;19950;-56
2021/06/22 08:08:03;;;;;;;;;;;26.50;94.70;;;;;;5107722;28;19908;-54
2021/06/22 08:10:30;;;;;;;;;;;26.50;94.60;;;;;;5108381;28;19918;-52
2021/06/22 08:12:57;;;;;;;;;;;26.50;94.60;;;;;;5107682;28;19912;-54
2021/06/22 08:15:24;;;;;;;;;;;26.40;94.50;;;;;;5107673;28;19912;-55
2021/06/22 08:17:50;;;;;;;;;;;26.40;94.60;;;;;;5107772;28;19911;-58
2021/06/22 08:20:17;;;;;;;;;;;26.40;94.70;;;;;;5107950;28;19913;-55
2021/06/22 08:22:43;;;;;;;;;;;26.40;94.70;;;;;;5107800;28;19911;-54
2021/06/22 08:25:10;;;;;;;;;;;26.40;94.70;;;;;;5107997;28;19912;-55
2021/06/22 08:27:36;;;;;;;;;;;26.30;94.80;;;;;;5107235;28;20201;-52
2021/06/22 08:30:03;;;;;;;;;;;26.30;94.80;;;;;;5107912;28;19934;-52
2021/06/22 08:32:32;;;;;;;;;;;26.40;94.80;;;;;;5107377;28;19910;-56
2021/06/22 08:34:59;;;;;;;;;;;26.40;94.80;;;;;;5107597;28;20093;-52
2021/06/22 08:37:25;;;;;;;;;;;26.40;94.80;;;;;;5107313;28;19961;-59
2021/06/22 08:39:51;;;;;;;;;;;26.40;94.90;;;;;;5107631;28;19947;-57
2021/06/22 08:42:17;;;;;;;;;;;26.40;94.80;;;;;;5107093;28;19904;-53
2021/06/22 08:44:45;;;;;;;;;;;26.40;94.80;;;;;;5107491;28;19912;-54
2021/06/22 08:47:12;;;;;;;;;;;26.40;94.70;;;;;;5107092;28;19904;-53
2021/06/22 08:49:38;;;;;;;;;;;26.40;94.70;;;;;;5107237;28;19917;-53
2021/06/22 08:52:05;;;;;;;;;;;26.40;94.60;;;;;;5106712;28;19911;-53
2021/06/22 08:54:31;;;;;;;;;;;26.40;94.70;;;;;;5107391;28;19912;-52
2021/06/22 08:56:59;;;;;;;;;;;26.30;94.60;;;;;;5106898;28;19952;-57
2021/06/22 08:59:25;;;;;;;;;;;26.30;94.60;;;;;;5106778;28;20109;-51
2021/06/22 09:01:51;;;;;;;;;;;26.30;94.70;;;;;;5106812;28;19938;-52
2021/06/22 09:04:17;;;;;;;;;;;26.40;94.60;;;;;;5106950;28;19908;-56
2021/06/22 09:06:44;;;;;;;;;;;26.30;94.60;;;;;;5106638;28;19911;-55
2021/06/22 09:09:11;;;;;;;;;;;26.30;94.60;;;;;;5106904;28;19920;-51
2021/06/22 09:11:37;;;;;;;;;;;26.30;94.50;;;;;;5106749;28;19908;-53
2021/06/22 09:14:04;;;;;;;;;;;26.30;94.40;;;;;;5106701;28;20149;-52
2021/06/22 09:16:31;;;;;;;;;;;26.30;94.30;;;;;;5106578;28;19908;-52
2021/06/22 09:19:04;;;;;;;;;;;26.30;94.00;;;;;;5106577;28;20101;-54
2021/06/22 09:21:37;;;;;;;;;;;26.30;93.90;;;;;;5106784;28;19916;-53
2021/06/22 09:24:04;;;;;;;;;;;26.20;94.00;;;;;;5106592;28;19909;-54
2021/06/22 09:26:31;;;;;;;;;;;26.20;93.80;;;;;;5106150;28;20203;-55
2021/06/22 09:29:07;;;;;;;;;;;26.20;93.70;;;;;;5106204;28;19927;-56
2021/06/22 09:31:34;;;;;;;;;;;26.20;93.50;;;;;;5106265;28;19987;-53
2021/06/22 09:34:00;;;;;;;;;;;26.20;93.40;;;;;;5106117;28;19912;-52
2021/06/22 09:36:27;;;;;;;;;;;26.20;93.40;;;;;;5106213;28;19911;-52
2021/06/22 09:38:58;;;;;;;;;;;26.10;93.50;;;;;;5106184;28;20192;-56
2021/06/22 09:41:28;;;;;;;;;;;26.20;93.50;;;;;;5105866;28;20185;-56
2021/06/22 09:44:02;;;;;;;;;;;26.20;93.50;;;;;;5105935;28;19912;-55
2021/06/22 09:46:33;;;;;;;;;;;26.10;93.60;;;;;;5105830;28;19904;-53
2021/06/22 09:49:01;;;;;;;;;;;26.10;93.60;;;;;;5105901;28;19916;-51
2021/06/22 09:51:31;;;;;;;;;;;26.10;93.50;;;;;;5105812;28;19911;-53
2021/06/22 09:54:15;;;;;;;;;;;26.00;93.60;;;;;;5105819;28;20193;-51
2021/06/22 09:57:00;;;;;;;;;;;26.10;93.50;;;;;;5105697;28;19911;-52
2021/06/22 09:59:28;;;;;;;;;;;26.10;93.40;;;;;;5105911;28;19912;-53
2021/06/22 10:02:01;;;;;;;;;;;26.10;93.50;;;;;;5105717;28;19904;-52
2021/06/22 10:04:28;;;;;;;;;;;26.10;93.50;;;;;;5105056;28;20248;-53
2021/06/22 10:06:55;;;;;;;;;;;26.10;93.40;;;;;;5105517;28;19927;-56
2021/06/22 10:09:29;;;;;;;;;;;26.10;93.30;;;;;;5105880;28;19961;-51
2021/06/22 10:11:56;;;;;;;;;;;26.00;93.40;;;;;;5105306;28;19904;-55
2021/06/22 10:14:42;;;;;;;;;;;26.00;93.40;;;;;;5105681;28;19968;-54
2021/06/22 10:17:09;;;;;;;;;;;26.00;93.40;;;;;;5105259;28;19904;-52
2021/06/22 10:19:36;;;;;;;;;;;26.00;93.50;;;;;;5105563;28;20197;-54
2021/06/22 10:22:05;;;;;;;;;;;26.00;93.50;;;;;;5105187;28;19904;-55
2021/06/22 10:24:32;;;;;;;;;;;26.00;93.50;;;;;;5105341;28;19911;-54
2021/06/22 10:26:59;;;;;;;;;;;26.00;93.50;;;;;;5105037;28;19912;-58
2021/06/22 10:29:26;;;;;;;;;;;26.00;93.60;;;;;;5105355;28;19912;-53
2021/06/22 10:31:56;;;;;;;;;;;25.90;93.50;;;;;;5104918;28;19904;-52
2021/06/22 10:34:23;;;;;;;;;;;25.90;93.50;;;;;;5105279;28;20201;-57
2021/06/22 10:36:56;;;;;;;;;;;25.90;93.50;;;;;;5105226;28;19911;-53
2021/06/22 10:39:45;;;;;;;;;;;25.90;93.60;;;;;;5105102;28;19912;-53
2021/06/22 10:42:12;;;;;;;;;;;25.90;93.70;;;;;;5104669;28;19950;-55
2021/06/22 10:44:43;;;;;;;;;;;25.90;93.80;;;;;;5105118;28;20180;-54
2021/06/22 10:47:25;;;;;;;;;;;25.90;93.80;;;;;;5104748;28;19904;-53
2021/06/22 10:50:10;;;;;;;;;;;25.90;93.90;;;;;;5105065;28;20135;-56
2021/06/22 10:52:56;;;;;;;;;;;25.90;93.90;;;;;;5105076;28;19962;-54
2021/06/22 10:55:30;;;;;;;;;;;25.90;93.90;;;;;;5105119;28;19951;-54
2021/06/22 10:57:57;;;;;;;;;;;25.90;93.80;;;;;;5104691;28;20219;-55
2021/06/22 11:00:44;;;;;;;;;;;25.90;93.80;;;;;;5103561;28;20135;-56
2021/06/22 11:03:11;;;;;;;;;;;25.90;93.80;;;;;;5100729;28;19904;-52
2021/06/22 11:05:43;;;;;;;;;;;25.90;93.80;;;;;;5104578;28;19965;-50
2021/06/22 11:08:09;;;;;;;;;;;25.90;93.60;;;;;;5104639;28;19910;-51
2021/06/22 11:10:36;;;;;;;;;;;25.90;93.50;;;;;;5104620;28;20167;-52
2021/06/22 11:13:03;;;;;;;;;;;25.90;93.40;;;;;;5104448;28;19904;-56
2021/06/22 11:15:46;;;;;;;;;;;25.90;93.50;;;;;;5104896;28;19919;-55
2021/06/22 11:18:16;;;;;;;;;;;25.90;93.60;;;;;;5103134;28;20100;-58
2021/06/22 11:21:05;;;;;;;;;;;25.90;93.60;;;;;;5104470;28;19904;-55
2021/06/22 11:23:50;;;;;;;;;;;25.90;93.50;;;;;;5104267;28;19918;-54
2021/06/22 11:26:16;;;;;;;;;;;25.90;93.70;;;;;;5104304;28;20238;-53
2021/06/22 11:28:53;;;;;;;;;;;25.90;93.90;;;;;;5104091;28;20005;-54
2021/06/22 11:31:35;;;;;;;;;;;25.90;94.10;;;;;;5104412;28;19904;-58
2021/06/22 11:34:04;;;;;;;;;;;25.90;94.00;;;;;;5104398;28;19915;-58
2021/06/22 11:36:31;;;;;;;;;;;25.90;94.00;;;;;;5104406;28;19916;-55
2021/06/22 11:39:16;;;;;;;;;;;25.90;94.00;;;;;;5104596;28;20073;-52
2021/06/22 11:42:03;;;;;;;;;;;25.90;94.00;;;;;;5104424;28;19931;-55
2021/06/22 11:44:29;;;;;;;;;;;25.90;93.90;;;;;;5100508;28;19908;-54
2021/06/22 11:46:57;;;;;;;;;;;25.90;93.80;;;;;;5104404;28;19908;-54
2021/06/22 11:49:43;;;;;;;;;;;25.90;93.70;;;;;;5104310;28;19912;-57
2021/06/22 11:52:11;;;;;;;;;;;25.90;93.50;;;;;;5103765;28;19911;-55
2021/06/22 11:57:19;;;;;;;;;;;25.90;93.10;;;;;;5104040;28;19912;-58
2021/06/22 11:59:46;;;;;;;;;;;26.00;92.70;;;;;;5104383;28;19914;-58
2021/06/22 12:02:12;;;;;;;;;;;25.90;92.40;;;;;;5104063;28;19915;-53
2021/06/22 12:04:40;;;;;;;;;;;26.00;92.30;;;;;;5104289;28;19908;-52
2021/06/22 12:07:07;;;;;;;;;;;26.00;92.20;;;;;;5103904;28;20116;-52
2021/06/22 12:09:35;;;;;;;;;;;26.00;91.80;;;;;;5104168;28;19908;-52
2021/06/22 12:12:01;;;;;;;;;;;26.00;91.60;;;;;;5102775;28;20019;-53
2021/06/22 12:14:27;;;;;;;;;;;26.00;91.40;;;;;;5103846;28;19915;-56
2021/06/22 12:16:54;;;;;;;;;;;26.00;91.50;;;;;;5103986;28;20131;-55
2021/06/22 12:19:21;;;;;;;;;;;26.00;91.30;;;;;;5103817;28;19908;-54
2021/06/22 12:21:49;;;;;;;;;;;26.00;91.40;;;;;;5103833;28;19915;-52
2021/06/22 12:24:16;;;;;;;;;;;26.00;91.30;;;;;;5104003;28;19915;-59
2021/06/22 12:26:43;;;;;;;;;;;26.00;91.40;;;;;;5104376;28;19912;-53
2021/06/22 12:29:20;;;;;;;;;;;26.00;91.10;;;;;;5107585;28;19927;-59
2021/06/22 12:31:50;;;;;;;;;;;26.00;91.00;;;;;;5107375;28;19904;-55
2021/06/22 12:34:17;;;;;;;;;;;25.90;91.30;;;;;;5107634;28;19983;-56
2021/06/22 12:36:44;;;;;;;;;;;25.90;91.50;;;;;;5106266;28;19904;-59
2021/06/22 12:39:11;;;;;;;;;;;25.90;91.50;;;;;;5107429;28;20146;-55
2021/06/22 12:41:37;;;;;;;;;;;25.90;91.50;;;;;;5107284;28;20096;-56
2021/06/22 12:44:08;;;;;;;;;;;25.90;91.40;;;;;;5107346;28;19983;-52
2021/06/22 12:46:44;;;;;;;;;;;25.90;91.50;;;;;;5107065;28;19904;-56
2021/06/22 12:49:14;;;;;;;;;;;25.90;91.30;;;;;;5107363;28;20111;-52
2021/06/22 12:51:41;;;;;;;;;;;25.90;91.20;;;;;;5107034;28;19904;-53
2021/06/22 12:54:09;;;;;;;;;;;25.90;91.20;;;;;;5107153;28;19920;-53
2021/06/22 12:56:55;;;;;;;;;;;25.90;91.00;;;;;;5107030;28;19904;-54
2021/06/22 12:59:23;;;;;;;;;;;25.90;90.90;;;;;;5107191;28;19912;-52
2021/06/22 13:01:53;;;;;;;;;;;25.90;90.80;;;;;;5106906;28;20298;-55
2021/06/22 13:04:20;;;;;;;;;;;25.90;91.00;;;;;;5106975;28;20081;-54
2021/06/22 13:06:47;;;;;;;;;;;25.90;90.80;;;;;;5106834;28;20150;-52
2021/06/22 13:09:18;;;;;;;;;;;25.90;90.80;;;;;;5106839;28;19950;-53
2021/06/22 13:11:50;;;;;;;;;;;26.00;91.00;;;;;;5106658;28;19915;-53
2021/06/22 13:14:21;;;;;;;;;;;26.00;90.90;;;;;;5106888;28;20189;-53
2021/06/22 13:16:58;;;;;;;;;;;26.00;91.00;;;;;;5106669;28;19915;-57
2021/06/22 13:19:24;;;;;;;;;;;25.90;91.10;;;;;;5106740;28;19920;-53
2021/06/22 13:21:53;;;;;;;;;;;25.90;91.20;;;;;;5106538;28;19979;-53
2021/06/22 13:24:28;;;;;;;;;;;26.00;91.20;;;;;;5106515;28;19975;-55
2021/06/22 13:26:55;;;;;;;;;;;26.00;91.30;;;;;;5106367;28;19978;-52
2021/06/22 13:29:21;;;;;;;;;;;26.00;91.30;;;;;;5106476;28;19920;-55
2021/06/22 13:31:53;;;;;;;;;;;26.00;91.30;;;;;;5106157;28;19968;-53
2021/06/22 13:34:26;;;;;;;;;;;26.00;91.30;;;;;;5106494;28;19983;-51
2021/06/22 13:36:53;;;;;;;;;;;26.00;91.40;;;;;;5106280;28;19904;-53
2021/06/22 13:39:20;;;;;;;;;;;26.10;91.70;;;;;;5105123;28;19912;-55
2021/06/22 13:41:49;;;;;;;;;;;26.00;91.40;;;;;;5106018;28;19904;-55
2021/06/22 13:44:35;;;;;;;;;;;26.10;91.50;;;;;;5106275;28;19978;-54
2021/06/22 13:47:01;;;;;;;;;;;26.10;91.50;;;;;;5106033;28;19927;-51
2021/06/22 13:49:41;;;;;;;;;;;26.10;91.50;;;;;;5104826;28;19991;-50
2021/06/22 13:52:07;;;;;;;;;;;26.10;91.40;;;;;;5105875;28;19911;-54
2021/06/22 13:54:34;;;;;;;;;;;26.10;91.60;;;;;;5106202;28;19919;-52
2021/06/22 13:57:00;;;;;;;;;;;26.10;91.70;;;;;;5105978;28;19975;-52
2021/06/22 13:59:28;;;;;;;;;;;26.10;91.90;;;;;;5105815;28;20197;-54
2021/06/22 14:01:54;;;;;;;;;;;26.10;92.20;;;;;;5106085;28;20208;-55
2021/06/22 14:04:20;;;;;;;;;;;26.10;92.60;;;;;;5105643;28;19912;-52
2021/06/22 14:06:46;;;;;;;;;;;26.10;92.60;;;;;;5105448;28;19947;-52
2021/06/22 14:09:12;;;;;;;;;;;26.20;92.90;;;;;;5105680;28;20200;-52
2021/06/22 14:11:39;;;;;;;;;;;26.20;93.20;;;;;;5105568;28;19904;-55
2021/06/22 14:14:05;;;;;;;;;;;26.10;93.20;;;;;;5105858;28;19916;-52
2021/06/22 14:16:33;;;;;;;;;;;26.10;93.20;;;;;;5105402;28;20142;-56
2021/06/22 14:19:02;;;;;;;;;;;26.10;93.40;;;;;;5105561;28;19912;-54
2021/06/22 14:21:28;;;;;;;;;;;26.10;93.20;;;;;;5105438;28;19908;-51
2021/06/22 14:23:55;;;;;;;;;;;26.10;93.30;;;;;;5105470;28;19983;-53